Home > Products > Valid Products > TAF

000
FTUS44 KSHV 262300
TAFLFK
TAF
KLFK 262322Z 2700/2724 35010KT P6SM OVC015
      TEMPO 2700/2704 BKN025
     FM271600 07010KT P6SM BKN020 OVC070=



000
FTUS44 KSHV 262300
TAFSHV
TAF
KSHV 262322Z 2700/2724 35010KT P6SM OVC015
      TEMPO 2703/2707 BKN035
     FM270700 03008KT P6SM OVC025
     FM271500 05012G18KT P6SM BKN025 BKN080=



000
FTUS44 KSHV 262300
TAFMLU
TAF
KMLU 262322Z 2700/2724 02010KT P6SM OVC020
      TEMPO 2704/2708 BKN040
     FM271400 04012G18KT P6SM OVC020=



000
FTUS44 KSHV 262300
TAFGGG
TAF
KGGG 262322Z 2700/2724 01006KT P6SM SCT035 BKN100
      TEMPO 2700/2703 BKN030
     FM271400 05010KT P6SM BKN025 BKN070=



000
FTUS44 KSHV 262300
TAFTXK
TAF
KTXK 262322Z 2700/2724 01010KT P6SM SCT035
      TEMPO 2700/2702 01005KT BKN030
     FM271100 04005KT P6SM BKN025
     FM271500 06010KT P6SM BKN030 BKN080=



000
FTUS44 KSHV 262100 AAA
TAFELD
TAF AMD
KELD 262127Z 2621/2718 34005KT P6SM OVC017
     FM270300 35006KT P6SM SCT025 OVC040
     FM270800 02009KT P6SM BKN030 BKN100
     FM271500 03011G16KT P6SM OVC025=



000
FTUS44 KSHV 262100 AAA
TAFLFK
TAF AMD
KLFK 262124Z 2621/2718 35009G14KT P6SM OVC017
     FM270200 02006KT P6SM OVC015
     FM271000 06008KT P6SM BKN015 OVC020
     FM271400 04010G16KT P6SM OVC025=



000
FTUS44 KSHV 262100 AAA
TAFGGG
TAF AMD
KGGG 262120Z 2621/2718 35009KT P6SM OVC015
     FM262300 35010KT P6SM BKN025 OVC060
     FM270200 01008KT P6SM SCT070 OVC100
     FM271000 04008KT P6SM SCT040 BKN070
     FM271200 04008KT P6SM OVC050
     FM271300 04009KT P6SM OVC025
     FM271500 05011G15KT P6SM OVC020=



000
FTUS44 KSHV 262100 AAA
TAFTYR
TAF AMD
KTYR 262105Z 2621/2718 36010KT P6SM FEW030 SCT060
      TEMPO 2622/2624 SCT035 OVC090
     FM270000 01008KT P6SM BKN060 OVC100
     FM271000 04008KT P6SM SCT040 BKN070
     FM271200 04008KT P6SM OVC050
     FM271300 04009KT P6SM OVC025
     FM271500 05011KT P6SM OVC020=



000
FTUS44 KSHV 262000 AAB
TAFSHV
TAF AMD
KSHV 262051Z 2621/2718 35010KT P6SM OVC015
     FM270000 36008KT P6SM OVC025
     FM270300 01007KT P6SM OVC035
     FM270700 03008KT P6SM OVC025
     FM271500 05012G18KT P6SM OVC025=



000
FTUS44 KSHV 262000 AAA
TAFTXK
TAF AMD
KTXK 262042Z 2621/2718 01006KT P6SM BKN035
      TEMPO 2621/2623 SCT035 BKN100
     FM270300 01006KT P6SM SCT035 OVC100
     FM270700 04006KT P6SM BKN080 BKN250
     FM271100 04005KT P6SM BKN025 BKN250
     FM271500 05008G14KT P6SM BKN030 OVC100=



000
FTUS44 KSHV 261900 AAA
TAFSHV
TAF AMD
KSHV 261948Z 2620/2718 32012G17KT P6SM OVC015
     FM270000 36008KT P6SM OVC025
     FM270300 01007KT P6SM OVC035
     FM270700 03008KT P6SM OVC025
     FM271500 05012G18KT P6SM OVC025=



000
FTUS44 KSHV 261700 RRA
TAFLFK
TAF
KLFK 261745Z 2618/2718 31007KT P6SM OVC015
     FM262100 35011KT P6SM OVC035
     FM270700 02008KT P6SM OVC050
     FM271000 06008KT P6SM BKN015 OVC020
     FM271400 04010G16KT P6SM OVC025=



000
FTUS44 KSHV 261700 RRA
TAFTYR
TAF
KTYR 261745Z 2618/2718 36012G19KT P6SM BKN015 OVC025
     FM262100 35011G18KT P6SM SCT025 BKN050 OVC070
     FM270100 01008KT P6SM SCT070 OVC100
     FM271000 04008KT P6SM SCT040 BKN070
     FM271200 04008KT P6SM OVC050
     FM271300 04009KT P6SM OVC025
     FM271500 05011KT P6SM OVC020=



000
FTUS44 KSHV 261700 RRA
TAFELD
TAF
KELD 261745Z 2618/2718 33007KT P6SM BKN009 OVC025
      TEMPO 2618/2619 34010G17KT OVC015
     FM261900 34011KT P6SM OVC020
      TEMPO 2623/2701 36007KT SCT030 BKN045
     FM270800 02009KT P6SM BKN030 BKN100
     FM271500 03011G16KT P6SM OVC025=



000
FTUS44 KSHV 261700 RRA
TAFTYR
TAF
KTYR 261745Z 2618/2718 36012G19KT P6SM BKN015 OVC025
     FM262100 35011G18KT P6SM SCT025 BKN050 OVC070
     FM270100 01008KT P6SM SCT070 OVC100
     FM271000 04008KT P6SM SCT040 BKN070
     FM271200 04008KT P6SM OVC050
     FM271300 04009KT P6SM OVC025
     FM271500 05011KT P6SM OVC020=



000
FTUS44 KSHV 261700 RRA
TAFMLU
TAF
KMLU 261745Z 2618/2718 33009KT P6SM OVC015
     FM270000 01009KT P6SM OVC015
     FM270600 01007KT P6SM OVC025
     FM271700 04012G18KT P6SM OVC050=



000
FTUS44 KSHV 261700 RRA
TAFLFK
TAF
KLFK 261745Z 2618/2718 31007KT P6SM OVC015
     FM262100 35011KT P6SM OVC035
     FM270700 02008KT P6SM OVC050
     FM271000 06008KT P6SM BKN015 OVC020
     FM271400 04010G16KT P6SM OVC025=



000
FTUS44 KSHV 261700 RRA
TAFTXK
TAF
KTXK 261745Z 2618/2718 34011G18KT P6SM BKN040 OVC100
     FM270300 01006KT P6SM SCT035 OVC100
     FM270700 04006KT P6SM BKN080 BKN250
     FM271100 04005KT P6SM BKN025 BKN250
     FM271500 05008G14KT P6SM BKN030 OVC100=



000
FTUS44 KSHV 261700 RRA
TAFGGG
TAF
KGGG 261745Z 2618/2718 36012G19KT P6SM BKN015 OVC025
     FM262100 35011G18KT P6SM SCT025 BKN050 OVC070
     FM270100 01008KT P6SM SCT070 OVC100
     FM271000 04008KT P6SM SCT040 BKN070
     FM271200 04008KT P6SM OVC050
     FM271300 04009KT P6SM OVC025
     FM271500 05011KT P6SM OVC020=



000
FTUS44 KSHV 261700 RRA
TAFSHV
TAF
KSHV 261745Z 2618/2718 34010G18KT P6SM BKN025 OVC090
     FM270000 36008KT P6SM OVC025
     FM270300 01007KT P6SM OVC035
     FM270700 03008KT P6SM OVC025
     FM271500 05012G18KT P6SM OVC025=



000
FTUS44 KSHV 261700 RRA
TAFSHV
TAF
KSHV 261745Z 2618/2718 34010G18KT P6SM BKN025 OVC090
     FM270000 36008KT P6SM OVC025
     FM270300 01007KT P6SM OVC035
     FM270700 03008KT P6SM OVC025
     FM271500 05012G18KT P6SM OVC025=



000
FTUS44 KSHV 261700 RRA
TAFGGG
TAF
KGGG 261745Z 2618/2718 36012G19KT P6SM BKN015 OVC025
     FM262100 35011G18KT P6SM SCT025 BKN050 OVC070
     FM270100 01008KT P6SM SCT070 OVC100
     FM271000 04008KT P6SM SCT040 BKN070
     FM271200 04008KT P6SM OVC050
     FM271300 04009KT P6SM OVC025
     FM271500 05011KT P6SM OVC020=



000
FTUS44 KSHV 261700 RRA
TAFTXK
TAF
KTXK 261745Z 2618/2718 34011G18KT P6SM BKN040 OVC100
     FM270300 01006KT P6SM SCT035 OVC100
     FM270700 04006KT P6SM BKN080 BKN250
     FM271100 04005KT P6SM BKN025 BKN250
     FM271500 05008G14KT P6SM BKN030 OVC100=



000
FTUS44 KSHV 261700 RRA
TAFMLU
TAF
KMLU 261745Z 2618/2718 33009KT P6SM OVC015
     FM270000 01009KT P6SM OVC015
     FM270600 01007KT P6SM OVC025
     FM271700 04012G18KT P6SM OVC050=



000
FTUS44 KSHV 261700 RRA
TAFELD
TAF
KELD 261745Z 2618/2718 33007KT P6SM BKN009 OVC025
      TEMPO 2618/2619 34010G17KT OVC015
     FM261900 34011KT P6SM OVC020
      TEMPO 2623/2701 36007KT SCT030 BKN045
     FM270800 02009KT P6SM BKN030 BKN100
     FM271500 03011G16KT P6SM OVC025=



000
FTUS44 KSHV 261600 AAB
TAFELD
TAF AMD
KELD 261642Z 2617/2712 33007KT P6SM BKN009 OVC025
      TEMPO 2617/2619 34010G17KT OVC015
     FM261900 34011KT P6SM OVC020
      TEMPO 2623/2701 36007KT SCT030 BKN045
     FM270800 02007KT P6SM BKN030 BKN100=



000
FTUS44 KSHV 261600 AAB
TAFELD
TAF AMD
KELD 261642Z 2617/2712 33007KT P6SM BKN009 OVC025
      TEMPO 2617/2619 34010G17KT OVC015
     FM261900 34011KT P6SM OVC020
      TEMPO 2623/2701 36007KT SCT030 BKN045
     FM270800 02007KT P6SM BKN030 BKN100=



000
FTUS44 KSHV 261600 AAB
TAFSHV
TAF AMD
KSHV 261611Z 2616/2712 33012KT P6SM OVC015
      TEMPO 2616/2618 34012G18KT SCT015 BKN130
     FM261800 34010G18KT P6SM BKN025 OVC090
     FM270000 36008KT P6SM OVC025
     FM270300 01007KT P6SM OVC035
     FM270700 03008KT P6SM OVC025=



000
FTUS44 KSHV 261500 AAB
TAFTYR
TAF AMD
KTYR 261551Z 2616/2712 36012G20KT P6SM BKN010 OVC025
     FM262100 35011G18KT P6SM SCT025 BKN050 OVC070
     FM270100 01008KT P6SM SCT070 OVC100
     FM271000 04008KT P6SM SCT040 BKN070=



000
FTUS44 KSHV 261500 AAB
TAFTXK
TAF AMD
KTXK 261533Z 2616/2712 33007KT P6SM SCT080 OVC130
      TEMPO 2616/2618 34010G18KT BKN025 OVC080
     FM261800 34011G18KT P6SM BKN040 OVC100
     FM270300 01006KT P6SM SCT035 OVC100
     FM270700 04006KT P6SM BKN080 BKN250
     FM271100 04005KT P6SM BKN025 BKN250=



000
FTUS44 KSHV 261500 AAA
TAFGGG
TAF AMD
KGGG 261523Z 2615/2712 34011KT 5SM HZ BKN010 OVC020
      TEMPO 2615/2617 P6SM NSW BKN008 OVC015
     FM261700 35011KT P6SM OVC015
     FM262200 35011KT P6SM OVC025
     FM270100 01008KT P6SM OVC070
     FM271000 03008KT P6SM BKN025 OVC070=



000
FTUS44 KSHV 261300 AAA
TAFELD
TAF AMD
KELD 261346Z 2614/2712 VRB03KT P6SM SCT015 OVC120
      TEMPO 2614/2616 4SM BR
     FM261600 32005KT P6SM OVC010
     FM261800 34008KT P6SM OVC020
     FM270200 02007KT P6SM BKN030 BKN100=



000
FTUS44 KSHV 261300 AAA
TAFTYR
TAF AMD
KTYR 261345Z 2614/2712 VRB03KT 4SM BR OVC002
      TEMPO 2614/2616 1/4SM FZFG
     FM261600 35011KT P6SM OVC010
     FM262100 35011KT P6SM OVC025
     FM270100 01008KT P6SM OVC070
     FM271000 04008KT P6SM SCT040 BKN070=



000
FTUS44 KSHV 261300 AAA
TAFTXK
TAF AMD
KTXK 261344Z 2614/2712 30007KT P6SM OVC120
     FM261800 34011KT P6SM BKN035 OVC100
     FM270300 01006KT P6SM SCT035 OVC100
     FM270700 04006KT P6SM BKN080 BKN250=



000
FTUS44 KSHV 261300 AAA
TAFMLU
TAF AMD
KMLU 261342Z 2614/2712 33008KT P6SM OVC005
     FM262100 34010KT P6SM OVC015
     FM270000 01009KT P6SM OVC015
     FM270600 01007KT P6SM OVC025=



000
FTUS44 KSHV 261300 AAA
TAFSHV
TAF AMD
KSHV 261341Z 2614/2712 33007KT P6SM OVC007
      TEMPO 2614/2616 OVC003
     FM261600 33010KT P6SM OVC015
     FM270000 36008KT P6SM OVC015
     FM270300 01008KT P6SM OVC025=



000
FTUS44 KSHV 261100 RRA
TAFELD
TAF
KELD 261150Z 2612/2712 VRB03KT P6SM SCT005
      TEMPO 2612/2616 OVC005
     FM261600 32005KT P6SM OVC010
     FM261800 34008KT P6SM OVC020
     FM270200 02007KT P6SM BKN030 BKN100=



000
FTUS44 KSHV 261100 RRA
TAFSHV
TAF
KSHV 261150Z 2612/2712 27003KT P6SM OVC009
      TEMPO 2612/2614 3SM BR OVC004
     FM261600 33010KT P6SM OVC015
     FM270000 36008KT P6SM OVC015
     FM270300 01008KT P6SM OVC025=



000
FTUS44 KSHV 261100 RRA
TAFLFK
TAF
KLFK 261150Z 2612/2712 03007KT 6SM BR OVC006
     FM261600 02007KT P6SM OVC010
     FM261800 31007KT P6SM OVC010
     FM262100 35011KT P6SM OVC030
     FM270100 02008KT P6SM OVC050=



000
FTUS44 KSHV 261100 RRA
TAFMLU
TAF
KMLU 261150Z 2612/2712 33006KT P6SM OVC005
      TEMPO 2612/2614 3SM BR
     FM262100 34010KT P6SM OVC015
     FM270000 01009KT P6SM OVC015
     FM270600 01007KT P6SM OVC025=



000
FTUS44 KSHV 261100 RRA
TAFTXK
TAF
KTXK 261150Z 2612/2712 31006KT P6SM OVC003
     FM261400 34011KT P6SM OVC015
     FM261800 34011KT P6SM BKN035 OVC100
     FM270300 01006KT P6SM SCT035 OVC100
     FM270700 04006KT P6SM BKN080 BKN250=



000
FTUS44 KSHV 261100 RRA
TAFTYR
TAF
KTYR 261150Z 2612/2712 36004KT 5SM BR BKN001
      TEMPO 2612/2614 2SM BR
     FM261500 35011KT P6SM OVC010
     FM262100 35011KT P6SM OVC025
     FM270100 01008KT P6SM OVC070
     FM271000 04008KT P6SM SCT040 BKN070=



000
FTUS44 KSHV 261100 RRA
TAFELD
TAF
KELD 261150Z 2612/2712 VRB03KT P6SM SCT005
      TEMPO 2612/2616 OVC005
     FM261600 32005KT P6SM OVC010
     FM261800 34008KT P6SM OVC020
     FM270200 02007KT P6SM BKN030 BKN100=



000
FTUS44 KSHV 261100 RRA
TAFGGG
TAF
KGGG 261150Z 2612/2712 35007KT 3SM BR OVC002
      TEMPO 2612/2614 1SM BR
     FM261600 35011KT P6SM OVC010
     FM262200 35011KT P6SM OVC025
     FM270100 01008KT P6SM OVC070
     FM271000 03008KT P6SM SCT040 BKN070=



000
FTUS44 KSHV 261100 RRA
TAFSHV
TAF
KSHV 261150Z 2612/2712 27003KT P6SM OVC009
      TEMPO 2612/2614 3SM BR OVC004
     FM261600 33010KT P6SM OVC015
     FM270000 36008KT P6SM OVC015
     FM270300 01008KT P6SM OVC025=



000
FTUS44 KSHV 261100 RRA
TAFMLU
TAF
KMLU 261150Z 2612/2712 33006KT P6SM OVC005
      TEMPO 2612/2614 3SM BR
     FM262100 34010KT P6SM OVC015
     FM270000 01009KT P6SM OVC015
     FM270600 01007KT P6SM OVC025=



000
FTUS44 KSHV 261100 RRA
TAFTYR
TAF
KTYR 261150Z 2612/2712 36004KT 5SM BR BKN001
      TEMPO 2612/2614 2SM BR
     FM261500 35011KT P6SM OVC010
     FM262100 35011KT P6SM OVC025
     FM270100 01008KT P6SM OVC070
     FM271000 04008KT P6SM SCT040 BKN070=



000
FTUS44 KSHV 261100 RRA
TAFTXK
TAF
KTXK 261150Z 2612/2712 31006KT P6SM OVC003
     FM261400 34011KT P6SM OVC015
     FM261800 34011KT P6SM BKN035 OVC100
     FM270300 01006KT P6SM SCT035 OVC100
     FM270700 04006KT P6SM BKN080 BKN250=



000
FTUS44 KSHV 261100 RRA
TAFGGG
TAF
KGGG 261150Z 2612/2712 35007KT 3SM BR OVC002
      TEMPO 2612/2614 1SM BR
     FM261600 35011KT P6SM OVC010
     FM262200 35011KT P6SM OVC025
     FM270100 01008KT P6SM OVC070
     FM271000 03008KT P6SM SCT040 BKN070=



000
FTUS44 KSHV 261000 AAA
TAFELD
TAF AMD
KELD 261016Z 2610/2706 VRB03KT P6SM OVC004
      TEMPO 2612/2614 00000KT 1/2SM FZFG OVC001
     FM261500 34008KT P6SM OVC015
     FM270000 35005KT P6SM SKC=



000
FTUS44 KSHV 261000 AAA
TAFELD
TAF AMD
KELD 261016Z 2610/2706 VRB03KT P6SM OVC004
      TEMPO 2612/2614 00000KT 1/2SM FZFG OVC001
     FM261500 34008KT P6SM OVC015
     FM270000 35005KT P6SM SKC=



000
FTUS44 KSHV 261000 AAA
TAFGGG
TAF AMD
KGGG 261015Z 2610/2706 VRB03KT 6SM BR OVC003
      TEMPO 2612/2614 1/2SM FZFG OVC001
     FM261500 35013KT P6SM OVC015=



000
FTUS44 KSHV 261000 AAA
TAFGGG
TAF AMD
KGGG 261015Z 2610/2706 VRB03KT 6SM BR OVC003
      TEMPO 2612/2614 1/2SM FZFG OVC001
     FM261500 35013KT P6SM OVC015=



000
FTUS44 KSHV 261000 AAA
TAFLFK
TAF AMD
KLFK 261009Z 2610/2706 02004KT 6SM BR OVC005
     FM261200 01002KT 1/4SM FG OVC001
     FM261500 35006KT P6SM OVC001
     FM261600 34006KT P6SM BKN015=



000
FTUS44 KSHV 261000 AAA
TAFSHV
TAF AMD
KSHV 261006Z 2610/2706 VRB04KT P6SM OVC009
      TEMPO 2612/2614 1/2SM FG OVC001
     FM261500 33010KT 6SM BR OVC004
     FM270000 36008KT P6SM OVC015
     FM270300 01008KT P6SM BKN100=



000
FTUS44 KSHV 260800 AAA
TAFTXK
TAF AMD
KTXK 260829Z 2608/2706 VRB03KT 1/4SM FZFG OVC003
      TEMPO 2608/2612 4SM BR SKC
     FM261400 33003KT P6SM OVC015
     FM262100 34010KT P6SM OVC100
     FM270300 36005KT P6SM SCT250=



000
FTUS44 KSHV 260800 AAA
TAFTXK
TAF AMD
KTXK 260829Z 2608/2706 VRB03KT 1/4SM FZFG OVC003
      TEMPO 2608/2612 4SM BR SKC
     FM261400 33003KT P6SM OVC015
     FM262100 34010KT P6SM OVC100
     FM270300 36005KT P6SM SCT250=



000
FTUS44 KSHV 260500 CCB
TAFTXK
TAF COR
KTXK 260557Z 2606/2706 22003KT 5SM BR SKC
      TEMPO 2606/2608 1/4SM FZFG FG SCT005
     FM260800 33003KT 2SM BR OVC005
     FM261500 33003KT P6SM OVC015
     FM262100 34010KT P6SM OVC100
     FM270300 36005KT P6SM SCT250=



000
FTUS44 KSHV 260500 CCB
TAFTXK
TAF COR
KTXK 260557Z 2606/2706 22003KT 5SM BR SKC
      TEMPO 2606/2608 1/4SM FZFG FG SCT005
     FM260800 33003KT 2SM BR OVC005
     FM261500 33003KT P6SM OVC015
     FM262100 34010KT P6SM OVC100
     FM270300 36005KT P6SM SCT250=



000
FTUS44 KSHV 260500 CCA
TAFTXK
TAF COR
KTXK 260547Z 2606/2706 22003KT 5SM BR SKC
      TEMPO 2606/2608 1/4SM FZFG SCT003
     FM260800 33003KT 2SM BR OVC003
     FM261500 33003KT P6SM OVC015
     FM262100 34010KT P6SM OVC100
     FM270300 36005KT P6SM SCT250=



000
FTUS44 KSHV 260500 CCA
TAFTXK
TAF COR
KTXK 260547Z 2606/2706 22003KT 5SM BR SKC
      TEMPO 2606/2608 1/4SM FZFG SCT003
     FM260800 33003KT 2SM BR OVC003
     FM261500 33003KT P6SM OVC015
     FM262100 34010KT P6SM OVC100
     FM270300 36005KT P6SM SCT250=



000
FTUS44 KSHV 260500 RRA
TAFLFK
TAF
KLFK 260545Z 2606/2706 VRB03KT 6SM BR SKC
      TEMPO 2606/2609 00000KT 2SM BR
     FM260900 00000KT 2SM BR OVC001
     FM261200 01002KT 1/4SM FG OVC001
     FM261500 35006KT P6SM OVC001
     FM261600 34006KT P6SM BKN015=



000
FTUS44 KSHV 260500 RRA
TAFMLU
TAF
KMLU 260545Z 2606/2706 33006KT 4SM BR OVC003
      TEMPO 2608/2612 1/2SM FG FEW008
     FM261200 33003KT 4SM BR OVC001
     FM261500 34008KT 6SM BR OVC005
     FM262100 34010KT P6SM OVC007
     FM270000 01009KT P6SM OVC015
     FM270300 01007KT P6SM OVC050=



000
FTUS44 KSHV 260500 RRA
TAFSHV
TAF
KSHV 260545Z 2606/2706 01010KT P6SM OVC008
      TEMPO 2607/2608 6SM BR FEW008
     FM260800 01007KT 4SM BR SKC
      TEMPO 2610/2613 1/2SM FG OVC001
     FM261500 33010KT 6SM BR OVC004
     FM270000 36008KT P6SM OVC015
     FM270300 01008KT P6SM BKN100=



000
FTUS44 KSHV 260500 RRA
TAFTXK
TAF
KTXK 260545Z 2606/2706 22003KT 5SM BR SKC
      TEMPO 2606/2608 3SM BR SCT250
     FM260800 33003KT 2SM BR OVC003
     FM261500 33003KT P6SM OVC015
     FM262100 34010KT P6SM OVC100
     FM270300 36005KT P6SM SCT250=



000
FTUS44 KSHV 260500 RRA
TAFMLU
TAF
KMLU 260545Z 2606/2706 33006KT 4SM BR OVC003
      TEMPO 2608/2612 1/2SM FG FEW008
     FM261200 33003KT 4SM BR OVC001
     FM261500 34008KT 6SM BR OVC005
     FM262100 34010KT P6SM OVC007
     FM270000 01009KT P6SM OVC015
     FM270300 01007KT P6SM OVC050=



000
FTUS44 KSHV 260500 RRA
TAFTYR
TAF
KTYR 260545Z 2606/2706 00000KT 6SM BR SKC
      TEMPO 2608/2612 3SM BR
     FM261500 35012KT P6SM OVC015
     FM270000 36008KT P6SM OVC100
     FM270300 01006KT P6SM SCT250=



000
FTUS44 KSHV 260500 RRA
TAFGGG
TAF
KGGG 260545Z 2606/2706 03003KT P6SM OVC008
      TEMPO 2606/2608 6SM BR FEW008
     FM260800 01007KT 4SM BR SKC
      TEMPO 2610/2613 1/2SM FZFG OVC001
     FM261500 35013KT P6SM OVC015=



000
FTUS44 KSHV 260500 RRA
TAFSHV
TAF
KSHV 260545Z 2606/2706 01010KT P6SM OVC008
      TEMPO 2607/2608 6SM BR FEW008
     FM260800 01007KT 4SM BR SKC
      TEMPO 2610/2613 1/2SM FG OVC001
     FM261500 33010KT 6SM BR OVC004
     FM270000 36008KT P6SM OVC015
     FM270300 01008KT P6SM BKN100=



000
FTUS44 KSHV 260500 RRA
TAFELD
TAF
KELD 260545Z 2606/2706 29003KT P6SM OVC008
      TEMPO 2606/2608 6SM BR FEW008
     FM260800 01004KT 4SM BR SKC
      TEMPO 2609/2613 00000KT 1/2SM FZFG OVC001
     FM261500 34008KT P6SM OVC015
     FM270000 35005KT P6SM SKC=



000
FTUS44 KSHV 260500 RRA
TAFGGG
TAF
KGGG 260545Z 2606/2706 03003KT P6SM OVC008
      TEMPO 2606/2608 6SM BR FEW008
     FM260800 01007KT 4SM BR SKC
      TEMPO 2610/2613 1/2SM FZFG OVC001
     FM261500 35013KT P6SM OVC015=



000
FTUS44 KSHV 260500 RRA
TAFLFK
TAF
KLFK 260545Z 2606/2706 VRB03KT 6SM BR SKC
      TEMPO 2606/2609 00000KT 2SM BR
     FM260900 00000KT 2SM BR OVC001
     FM261200 01002KT 1/4SM FG OVC001
     FM261500 35006KT P6SM OVC001
     FM261600 34006KT P6SM BKN015=



000
FTUS44 KSHV 260500 RRA
TAFTYR
TAF
KTYR 260545Z 2606/2706 00000KT 6SM BR SKC
      TEMPO 2608/2612 3SM BR
     FM261500 35012KT P6SM OVC015
     FM270000 36008KT P6SM OVC100
     FM270300 01006KT P6SM SCT250=



000
FTUS44 KSHV 260500 RRA
TAFELD
TAF
KELD 260545Z 2606/2706 29003KT P6SM OVC008
      TEMPO 2606/2608 6SM BR FEW008
     FM260800 01004KT 4SM BR SKC
      TEMPO 2609/2613 00000KT 1/2SM FZFG OVC001
     FM261500 34008KT P6SM OVC015
     FM270000 35005KT P6SM SKC=



000
FTUS44 KSHV 260100 AAA
TAFLFK
TAF AMD
KLFK 260126Z 2601/2624 32007KT P6SM OVC019
      TEMPO 2603/2604 SCT020
     FM260400 34004KT 6SM BR SKC
      TEMPO 2604/2606 3SM BR SCT005
     FM260600 00000KT 3SM BR BKN005
     FM260900 00000KT 2SM BR OVC001
     FM261200 01002KT 1/4SM FG OVC001
     FM261500 35006KT P6SM OVC001
     FM261600 34006KT P6SM BKN015=



000
FTUS44 KSHV 260100 AAA
TAFLFK
TAF AMD
KLFK 260126Z 2601/2624 32007KT P6SM OVC019
      TEMPO 2603/2604 SCT020
     FM260400 34004KT 6SM BR SKC
      TEMPO 2604/2606 3SM BR SCT005
     FM260600 00000KT 3SM BR BKN005
     FM260900 00000KT 2SM BR OVC001
     FM261200 01002KT 1/4SM FG OVC001
     FM261500 35006KT P6SM OVC001
     FM261600 34006KT P6SM BKN015=



000
FTUS44 KSHV 260000 AAA
TAFTXK
TAF AMD
KTXK 260024Z 2600/2624 00000KT 6SM BR OVC009
      TEMPO 2604/2606 5SM BR SCT020
     FM260600 34004KT 3SM BR SKC
      TEMPO 2606/2608 3SM BR OVC007
     FM260800 33003KT 2SM BR OVC003
     FM261500 33003KT P6SM OVC015
     FM262100 34010KT P6SM OVC100=



000
FTUS44 KSHV 252300 CCA
TAFELD
TAF COR
KELD 252343Z 2600/2624 33004KT P6SM OVC006
     FM260300 00000KT 4SM BR OVC004
     FM260600 00000KT 1/4SM FG OVC004
     FM261200 31002KT 1/2SM FG OVC001
     FM261500 32006KT 6SM BR OVC004
     FM261800 33008KT P6SM OVC015
     FM262100 33008KT P6SM SKC=



000
FTUS44 KSHV 252300 CCA
TAFELD
TAF COR
KELD 252343Z 2600/2624 33004KT P6SM OVC006
     FM260300 00000KT 4SM BR OVC004
     FM260600 00000KT 1/4SM FG OVC004
     FM261200 31002KT 1/2SM FG OVC001
     FM261500 32006KT 6SM BR OVC004
     FM261800 33008KT P6SM OVC015
     FM262100 33008KT P6SM SKC=



000
FTUS44 KSHV 252300
TAFSHV
TAF
KSHV 252340Z 2600/2624 31009KT P6SM SCT010 OVC016
     FM260300 33003KT 4SM BR OVC007
      TEMPO 2610/2613 1/2SM FG OVC001
     FM261500 33003KT 6SM BR OVC004=



000
FTUS44 KSHV 252300
TAFTXK
TAF
KTXK 252340Z 2600/2624 33004KT P6SM OVC009
      TEMPO 2604/2606 SCT020
     FM260600 34004KT P6SM SKC
      TEMPO 2606/2608 6SM BR OVC007
     FM260800 33003KT 4SM BR OVC003
     FM261500 33003KT P6SM OVC015
     FM262100 34010KT P6SM OVC100=



000
FTUS44 KSHV 252300
TAFMLU
TAF
KMLU 252340Z 2600/2624 36006KT P6SM OVC007
     FM260600 34003KT 1/2SM FG OVC001
     FM261200 33003KT 4SM BR OVC003
     FM261500 33006KT 6SM BR OVC005
     FM262100 34010KT P6SM OVC007=



000
FTUS44 KSHV 252300
TAFTYR
TAF
KTYR 252340Z 2600/2624 32006KT P6SM OVC018
      TEMPO 2600/2602 SCT020
     FM260200 34004KT P6SM SKC
     FM260600 VRB03KT 4SM BR BKN007
      TEMPO 2609/2613 4SM OVC001
     FM261500 35013KT P6SM OVC015=



000
FTUS44 KSHV 252300
TAFELD
TAF
KELD 252340Z 2600/2624 33004KT P6SM OVC006
     FM261500 30003KT P6SM BKN010=



000
FTUS44 KSHV 252300
TAFGGG
TAF
KGGG 252340Z 2600/2624 32005KT P6SM SCT011 OVC018
      TEMPO 2602/2604 SCT020
     FM260400 34004KT P6SM SKC
     FM260600 VRB03KT 4SM BR BKN007
      TEMPO 2609/2613 4SM OVC001
     FM261500 35013KT P6SM OVC015=



000
FTUS44 KSHV 252300
TAFLFK
TAF
KLFK 252340Z 2600/2624 31003KT P6SM OVC023
     FM260500 00000KT 3SM BR BKN005
     FM260900 00000KT 2SM BR OVC001
     FM261200 01002KT 1/4SM FG OVC001
     FM261500 35006KT P6SM OVC001
     FM261600 34006KT P6SM BKN015=



000
FTUS44 KSHV 252300
TAFTXK
TAF
KTXK 252340Z 2600/2624 33004KT P6SM OVC009
      TEMPO 2604/2606 SCT020
     FM260600 34004KT P6SM SKC
      TEMPO 2606/2608 6SM BR OVC007
     FM260800 33003KT 4SM BR OVC003
     FM261500 33003KT P6SM OVC015
     FM262100 34010KT P6SM OVC100=



000
FTUS44 KSHV 252300
TAFTYR
TAF
KTYR 252340Z 2600/2624 32006KT P6SM OVC018
      TEMPO 2600/2602 SCT020
     FM260200 34004KT P6SM SKC
     FM260600 VRB03KT 4SM BR BKN007
      TEMPO 2609/2613 4SM OVC001
     FM261500 35013KT P6SM OVC015=



000
FTUS44 KSHV 252300
TAFELD
TAF
KELD 252340Z 2600/2624 33004KT P6SM OVC006
     FM261500 30003KT P6SM BKN010=



000
FTUS44 KSHV 252300
TAFMLU
TAF
KMLU 252340Z 2600/2624 36006KT P6SM OVC007
     FM260600 34003KT 1/2SM FG OVC001
     FM261200 33003KT 4SM BR OVC003
     FM261500 33006KT 6SM BR OVC005
     FM262100 34010KT P6SM OVC007=



000
FTUS44 KSHV 252300
TAFLFK
TAF
KLFK 252340Z 2600/2624 31003KT P6SM OVC023
     FM260500 00000KT 3SM BR BKN005
     FM260900 00000KT 2SM BR OVC001
     FM261200 01002KT 1/4SM FG OVC001
     FM261500 35006KT P6SM OVC001
     FM261600 34006KT P6SM BKN015=



000
FTUS44 KSHV 252300
TAFSHV
TAF
KSHV 252340Z 2600/2624 31009KT P6SM SCT010 OVC016
     FM260300 33003KT 4SM BR OVC007
      TEMPO 2610/2613 1/2SM FG OVC001
     FM261500 33003KT 6SM BR OVC004=



000
FTUS44 KSHV 252000 AAB
TAFTXK
TAF AMD
KTXK 252003Z 2520/2618 31003KT 1/2SM SN FG OVC004
     FM252100 30004KT 3SM -SN BR OVC010
     FM252200 33003KT 5SM BR OVC015
     FM260500 33003KT 2SM BR OVC007
     FM261300 33003KT P6SM OVC007=



000
FTUS44 KSHV 252000 AAB
TAFTXK
TAF AMD
KTXK 252003Z 2520/2618 31003KT 1/2SM SN FG OVC004
     FM252100 30004KT 3SM -SN BR OVC010
     FM252200 33003KT 5SM BR OVC015
     FM260500 33003KT 2SM BR OVC007
     FM261300 33003KT P6SM OVC007=



000
FTUS44 KSHV 251900 AAA
TAFMLU
TAF AMD
KMLU 251959Z 2520/2618 34003KT 1/2SM -SN FG OVC004
     FM252300 34006KT 3SM -SN BR OVC004
     FM260000 34003KT 6SM BR OVC007
     FM260600 34003KT 2SM BR OVC005
     FM261200 33003KT 4SM BR OVC003=



000
FTUS44 KSHV 251900 AAA
TAFSHV
TAF AMD
KSHV 251958Z 2520/2618 31006KT 3SM -SN BR BKN007
     FM252100 31005KT P6SM OVC010
     FM260300 33003KT 4SM BR OVC007
     FM261200 33003KT 4SM BR OVC003=



000
FTUS44 KSHV 251900 AAA
TAFSHV
TAF AMD
KSHV 251958Z 2520/2618 31006KT 3SM -SN BR BKN007
     FM252100 31005KT P6SM OVC010
     FM260300 33003KT 4SM BR OVC007
     FM261200 33003KT 4SM BR OVC003=



000
FTUS44 KSHV 251900 AAA
TAFTYR
TAF AMD
KTYR 251917Z 2519/2618 03007KT P6SM SCT015 OVC035
      TEMPO 2519/2521 4SM -SN BR OVC015
     FM252100 VRB04KT 6SM BR OVC015
     FM260600 VRB03KT 4SM BR BKN007
     FM261300 35013KT P6SM OVC015=



000
FTUS44 KSHV 251900 AAA
TAFTXK
TAF AMD
KTXK 251917Z 2519/2618 31003KT 1/2SM SN FG OVC009
     FM252000 30004KT 3SM -SN BR OVC010
     FM252200 33003KT 5SM BR OVC015
     FM260500 33003KT 2SM BR OVC007
     FM261300 33003KT P6SM OVC007=



000
FTUS44 KSHV 251700 RRA
TAFTYR
TAF
KTYR 251741Z 2518/2618 03007KT 4SM -SN BR SCT004 OVC010
      TEMPO 2518/2521 1SM -SN BR OVC004
     FM252100 VRB04KT 6SM BR OVC015
     FM260600 VRB03KT 4SM BR BKN007
     FM261300 35013KT P6SM OVC015=



000
FTUS44 KSHV 251700 RRA
TAFTXK
TAF
KTXK 251741Z 2518/2618 31003KT 1/4SM SN FG OVC009
     FM252000 30004KT 3SM -SN BR OVC010
     FM252200 33003KT 5SM BR OVC015
     FM260500 33003KT 2SM BR OVC007
     FM261300 33003KT P6SM OVC007=



000
FTUS44 KSHV 251700 RRA
TAFTXK
TAF
KTXK 251741Z 2518/2618 31003KT 1/4SM SN FG OVC009
     FM252000 30004KT 3SM -SN BR OVC010
     FM252200 33003KT 5SM BR OVC015
     FM260500 33003KT 2SM BR OVC007
     FM261300 33003KT P6SM OVC007=



000
FTUS44 KSHV 251700 RRA
TAFELD
TAF
KELD 251741Z 2518/2618 VRB03KT 1/2SM SN FG VV009
     FM252200 30003KT 3SM -SN BR SCT006 OVC007
     FM260000 00000KT 4SM BR OVC005
     FM261500 30003KT P6SM BKN010=



000
FTUS44 KSHV 251700 RRA
TAFLFK
TAF
KLFK 251741Z 2518/2618 05003KT 3SM -RA BR BKN007
     FM251900 31007KT P6SM OVC015
     FM260500 00000KT 3SM BR BKN005
     FM261600 34006KT P6SM BKN015=



000
FTUS44 KSHV 251700 RRA
TAFLFK
TAF
KLFK 251741Z 2518/2618 05003KT 3SM -RA BR BKN007
     FM251900 31007KT P6SM OVC015
     FM260500 00000KT 3SM BR BKN005
     FM261600 34006KT P6SM BKN015=



000
FTUS44 KSHV 251700 RRA
TAFELD
TAF
KELD 251741Z 2518/2618 VRB03KT 1/2SM SN FG VV009
     FM252200 30003KT 3SM -SN BR SCT006 OVC007
     FM260000 00000KT 4SM BR OVC005
     FM261500 30003KT P6SM BKN010=



000
FTUS44 KSHV 251700 RRA
TAFGGG
TAF
KGGG 251741Z 2518/2618 03007KT 1/2SM SN FG VV005
     FM251900 30006KT 3SM -SN BR OVC010
     FM252100 VRB04KT P6SM OVC007
     FM260000 VRB04KT 6SM BR OVC015
     FM260600 13003KT 4SM BR BKN007
     FM261300 35013KT P6SM OVC015=



000
FTUS44 KSHV 251700 RRA
TAFTYR
TAF
KTYR 251741Z 2518/2618 03007KT 4SM -SN BR SCT004 OVC010
      TEMPO 2518/2521 1SM -SN BR OVC004
     FM252100 VRB04KT 6SM BR OVC015
     FM260600 VRB03KT 4SM BR BKN007
     FM261300 35013KT P6SM OVC015=



000
FTUS44 KSHV 251700 RRA
TAFGGG
TAF
KGGG 251741Z 2518/2618 03007KT 1/2SM SN FG VV005
     FM251900 30006KT 3SM -SN BR OVC010
     FM252100 VRB04KT P6SM OVC007
     FM260000 VRB04KT 6SM BR OVC015
     FM260600 13003KT 4SM BR BKN007
     FM261300 35013KT P6SM OVC015=



000
FTUS44 KSHV 251700 RRA
TAFMLU
TAF
KMLU 251741Z 2518/2618 VRB04KT 5SM -RA BR BKN008
      TEMPO 2518/2520 2SM -FZRASNPL BR
     FM252000 34003KT 2SM -SN BR OVC003
     FM260000 34003KT 6SM BR OVC007
     FM260600 34003KT 2SM BR OVC005
     FM261200 33003KT 4SM BR OVC003=



000
FTUS44 KSHV 251700 RRA
TAFSHV
TAF
KSHV 251741Z 2518/2618 VRB04KT 1/4SM SN FG VV009
     FM252000 31006KT 3SM -SN BR OVC010
     FM252100 31005KT P6SM OVC010
     FM260300 33003KT 4SM BR OVC007
     FM261200 33003KT 4SM BR OVC003=



000
FTUS44 KSHV 251700 RRA
TAFMLU
TAF
KMLU 251741Z 2518/2618 VRB04KT 5SM -RA BR BKN008
      TEMPO 2518/2520 2SM -FZRASNPL BR
     FM252000 34003KT 2SM -SN BR OVC003
     FM260000 34003KT 6SM BR OVC007
     FM260600 34003KT 2SM BR OVC005
     FM261200 33003KT 4SM BR OVC003=



000
FTUS44 KSHV 251700 RRA
TAFSHV
TAF
KSHV 251741Z 2518/2618 VRB04KT 1/4SM SN FG VV009
     FM252000 31006KT 3SM -SN BR OVC010
     FM252100 31005KT P6SM OVC010
     FM260300 33003KT 4SM BR OVC007
     FM261200 33003KT 4SM BR OVC003=



000
FTUS44 KSHV 251500 AAA
TAFELD
TAF AMD
KELD 251539Z 2516/2612 VRB03KT 3SM -SN BR SCT006 OVC015
      TEMPO 2516/2519 1/2SM SN BKN006
     FM260000 VRB04KT 4SM BR OVC004=



000
FTUS44 KSHV 251500 AAA
TAFGGG
TAF AMD
KGGG 251538Z 2516/2612 03007KT 2SM -SN BR BKN010
      TEMPO 2516/2518 1/2SM SN OVC007
     FM252100 VRB04KT P6SM OVC007
     FM260000 VRB04KT 6SM BR OVC015
     FM260600 13003KT 4SM BR BKN250=



000
FTUS44 KSHV 251500 AAA
TAFLFK
TAF AMD
KLFK 251535Z 2516/2612 05003KT 3SM -RA BR SCT005 OVC010
      TEMPO 2516/2519 OVC005
     FM251900 31007KT P6SM OVC015
     FM252200 31003KT P6SM OVC050
     FM260500 00000KT 6SM BR BKN010=



000
FTUS44 KSHV 251500 AAA
TAFTXK
TAF AMD
KTXK 251527Z 2515/2612 31003KT 2SM -SN BR OVC005
      TEMPO 2515/2518 1/4SM +SN
     FM252200 33003KT 5SM BR OVC015
     FM260500 33003KT 2SM BR OVC007=



000
FTUS44 KSHV 251500 AAA
TAFMLU
TAF AMD
KMLU 251526Z 2515/2612 VRB04KT 5SM -RA BR OVC040
      TEMPO 2516/2520 2SM -FZRASNPL BR BKN008 OVC012
     FM252000 34003KT 2SM -SN BR OVC003
     FM260000 34003KT 6SM BR OVC007
     FM260600 34003KT 2SM BR OVC005=



000
FTUS44 KSHV 251500 AAA
TAFSHV
TAF AMD
KSHV 251508Z 2515/2612 VRB04KT 4SM -SN BR BKN008 OVC012
      TEMPO 2515/2517 2SM -FZRASNPL BR
     FM251700 01004KT 2SM -SN BR OVC008
     FM252100 31005KT P6SM OVC007
     FM260300 33003KT 4SM BR OVC007
     FM260900 33003KT 4SM BR OVC010=



000
FTUS44 KSHV 251100
TAFELD
TAF
KELD 251137Z 2512/2612 VRB03KT 5SM -FZRAPL BR OVC070
      TEMPO 2512/2515 3SM -SNPL BR OVC010
     FM251500 VRB04KT 2SM -SN BR OVC007
     FM260000 VRB04KT 4SM BR OVC004=



000
FTUS44 KSHV 251100
TAFTXK
TAF
KTXK 251137Z 2512/2612 VRB04KT 5SM -FZRAPL BR OVC070
      TEMPO 2512/2515 2SM -FZRASNPL BR OVC008
     FM251500 31003KT 2SM -SN BR OVC007
     FM252200 33003KT 5SM BR OVC015
     FM260500 33003KT 2SM BR OVC007=



000
FTUS44 KSHV 251100
TAFGGG
TAF
KGGG 251137Z 2512/2612 03007KT 4SM -FZRAPL BR OVC015
      TEMPO 2514/2517 3SM -FZRASNPL BR
     FM251700 31006KT 2SM -SN BR OVC005
     FM252100 VRB04KT P6SM OVC007
     FM260000 VRB04KT 6SM BR OVC015
     FM260600 13003KT 4SM BR BKN250=



000
FTUS44 KSHV 251100
TAFLFK
TAF
KLFK 251137Z 2512/2612 05003KT 3SM -RA BR OVC005
     FM251900 31007KT P6SM OVC015
     FM252200 31003KT P6SM OVC050
     FM260500 00000KT 6SM BR BKN010=



000
FTUS44 KSHV 251100
TAFSHV
TAF
KSHV 251137Z 2512/2612 VRB04KT 4SM -FZRAPL BR BKN008 OVC012
      TEMPO 2514/2517 3SM -FZRASNPL BR
     FM251700 01004KT 2SM -SN BR OVC008
     FM252100 31005KT P6SM OVC007
     FM260300 33003KT 4SM BR OVC007
     FM260900 33003KT 4SM BR OVC010=



000
FTUS44 KSHV 251100
TAFMLU
TAF
KMLU 251137Z 2512/2612 VRB04KT 5SM -FZRAPL BR OVC040
      TEMPO 2514/2518 3SM -FZRASNPL BR BKN008 OVC012
     FM251800 34003KT 2SM -SN BR OVC003
     FM260000 34003KT 6SM BR OVC007
     FM260600 34003KT 2SM BR OVC005=



000
FTUS44 KSHV 251100
TAFTYR
TAF
KTYR 251137Z 2512/2612 03007KT 4SM -FZRAPL BR BKN005 OVC035
      TEMPO 2514/2517 3SM -FZRASNPL BR
     FM251700 31006KT 2SM -SN BR OVC007
     FM252100 VRB04KT 6SM BR OVC015
     FM260600 13003KT 4SM BR BKN250=



000
FTUS44 KSHV 250900 AAA
TAFGGG
TAF AMD
KGGG 250926Z 2509/2606 36003KT 6SM -RA BR OVC015
     FM251100 33003KT 6SM -FZRAPL BR OVC015
     FM251300 31003KT 2SM -SN BR OVC003
     FM252100 31006KT P6SM OVC007
     FM260000 14004KT 6SM BR OVC015
     FM260300 13003KT 4SM BR SCT250=



000
FTUS44 KSHV 250900 AAA
TAFLFK
TAF AMD
KLFK 250924Z 2509/2606 VRB03KT 3SM -RA BR BKN004 OVC030
      TEMPO 2512/2514 2SM -RAPL BR OVC009
     FM251500 33005KT 2SM -SN BR OVC006
     FM252100 31007KT P6SM OVC015
     FM252200 31003KT P6SM OVC050
     FM260500 00000KT 6SM BR BKN010=



000
FTUS44 KSHV 250900 AAA
TAFTYR
TAF AMD
KTYR 250923Z 2509/2606 VRB03KT 4SM -FZRAPL BR OVC035
     FM251200 32003KT 3SM -SN BR OVC003
     FM251800 31006KT P6SM OVC007
     FM252100 14004KT 6SM BR OVC015
     FM260300 13003KT 4SM BR SCT250=



000
FTUS44 KSHV 250900 AAA
TAFTXK
TAF AMD
KTXK 250921Z 2509/2606 VRB03KT 6SM -FZRAPL BR OVC030
      TEMPO 2509/2513 2SM -SN BR OVC008
     FM251300 31003KT 1 1/2SM -SN BR OVC007
     FM252100 33003KT 5SM BR OVC015=



000
FTUS44 KSHV 250900 AAA
TAFSHV
TAF AMD
KSHV 250917Z 2509/2606 VRB03KT 6SM -RA BR OVC014
     FM251200 VRB03KT 5SM -FZRAPL BR OVC012
      TEMPO 2512/2515 2SM -SNPL BR OVC009
     FM251500 01004KT 2SM -SN BR OVC004
     FM252100 31005KT P6SM OVC007
     FM260300 33003KT 4SM BR OVC007=



000
FTUS44 KSHV 250500 CCA
TAFTXK
TAF COR
KTXK 250544Z 2500/2524 26007KT P6SM OVC200
     FM250800 VRB03KT P6SM BKN025
     FM251000 VRB03KT 3SM -SNPL BR OVC010
      TEMPO 2510/2513 2SM -SN BR OVC008
     FM251300 31003KT 1 1/2SM -SN BR OVC007
     FM252100 33003KT 5SM BR OVC015=



000
FTUS44 KSHV 250500 RRA
TAFSHV
TAF
KSHV 250543Z 2506/2606 36004KT P6SM OVC014
     FM251000 VRB03KT 5SM -FZRAPL BR OVC012
      TEMPO 2511/2515 2SM -SNPL BR OVC009
     FM251500 01004KT 2SM -SN BR OVC004
     FM252100 31005KT P6SM OVC007
     FM260300 33003KT 4SM BR OVC007=



000
FTUS44 KSHV 250500 RRA
TAFGGG
TAF
KGGG 250543Z 2506/2606 00000KT P6SM OVC013
     FM250900 32003KT 3SM -SNPL BR OVC010
     FM251200 33003KT 4SM -SN BR OVC003
     FM251400 30004KT 2SM -SN BR OVC003
     FM252100 31006KT P6SM OVC007
     FM260000 14004KT 6SM BR OVC015
     FM260300 13003KT 4SM BR SCT250=



000
FTUS44 KSHV 250500 RRA
TAFMLU
TAF
KMLU 250543Z 2506/2606 18003KT P6SM FEW015 OVC200
     FM251100 VRB03KT 5SM -FZRAPL BR OVC015
      TEMPO 2512/2515 3SM -SNPL BR OVC009
     FM251500 34003KT 3SM -SNPL BR OVC007
     FM251800 05005KT 2SM -SN BR OVC003
     FM260000 34002KT 6SM BR OVC007=



000
FTUS44 KSHV 250500 RRA
TAFTYR
TAF
KTYR 250543Z 2506/2606 32004KT P6SM BKN010 OVC040
     FM250800 32003KT 4SM -SNPL BR OVC010
     FM251200 33003KT 3SM -SN BR OVC003
     FM251400 30004KT 2SM -SN BR OVC003
     FM251800 31006KT P6SM OVC007
     FM252100 14004KT 6SM BR OVC015
     FM260300 13003KT 4SM BR SCT250=



000
FTUS44 KSHV 250500 RRA
TAFELD
TAF
KELD 250543Z 2506/2606 00000KT P6SM OVC200
     FM251100 VRB03KT 3SM -FZRAPL BR OVC010
     FM251300 VRB05KT 3SM -SNPL BR OVC010
     FM251500 VRB05KT 2SM -SN BR OVC007
     FM260000 00000KT 4SM BR OVC004=



000
FTUS44 KSHV 250500 RRA
TAFTXK
TAF
KTXK 250543Z 2506/2606 04003KT P6SM OVC200
     FM251000 VRB03KT 3SM -SNPL BR OVC010
      TEMPO 2510/2513 2SM -SN BR OVC008
     FM251300 31003KT 1 1/2SM -SN BR OVC007
     FM252100 33003KT 6SM BR OVC015
     FM260200 26003KT P6SM OVC250=



000
FTUS44 KSHV 250500 RRA
TAFLFK
TAF
KLFK 250543Z 2506/2606 06003KT 6SM HZ SCT010 SCT014 OVC018
     FM250900 VRB03KT 3SM -RAPL BR OVC015
      TEMPO 2512/2514 2SM -RAPL BR OVC009
     FM251500 33005KT 2SM -SN BR OVC006
     FM252100 31007KT P6SM OVC015
     FM252200 31003KT P6SM OVC050
     FM260500 00000KT 6SM BR BKN010=



000
FTUS44 KSHV 242300
TAFGGG
TAF
KGGG 242340Z 2500/2524 00000KT P6SM OVC014
     FM250900 32003KT 3SM -SNPL BR OVC010
     FM251200 33003KT 4SM -SN BR OVC003
     FM251400 30004KT 2SM -SN BR OVC003
     FM252200 31006KT P6SM OVC007=



000
FTUS44 KSHV 242300
TAFTYR
TAF
KTYR 242340Z 2500/2524 00000KT P6SM OVC011
     FM250900 32003KT 3SM -SNPL BR OVC010
     FM251200 33003KT 4SM -SN BR OVC003
     FM251400 30004KT 2SM -SN BR OVC003
     FM252100 31006KT P6SM OVC007=



000
FTUS44 KSHV 242300
TAFLFK
TAF
KLFK 242340Z 2500/2524 36004KT P6SM OVC018
     FM250900 VRB03KT 3SM -RAPL BR OVC015
      TEMPO 2512/2514 2SM -RAPL BR OVC009
     FM251500 33005KT 2SM -SN BR OVC006
     FM252100 31007KT P6SM OVC015=



000
FTUS44 KSHV 242300
TAFELD
TAF
KELD 242340Z 2500/2524 21006KT P6SM SKC
     FM251100 VRB03KT 3SM -FZRAPL BR OVC010
     FM251300 VRB05KT 3SM -SNPL BR OVC010
     FM251500 VRB05KT 2SM -SN BR OVC007=



000
FTUS44 KSHV 242100 AAA
TAFTYR
TAF AMD
KTYR 242147Z 2422/2518 32003KT P6SM OVC010
     FM250000 VRB04KT P6SM OVC015
     FM250900 32003KT 3SM -SNPL BR OVC010
     FM251200 33003KT 4SM -SN BR OVC003
     FM251400 30004KT 2SM -SN BR OVC003=



000
FTUS44 KSHV 242100 AAA
TAFTYR
TAF AMD
KTYR 242147Z 2422/2518 32003KT P6SM OVC010
     FM250000 VRB04KT P6SM OVC015
     FM250900 32003KT 3SM -SNPL BR OVC010
     FM251200 33003KT 4SM -SN BR OVC003
     FM251400 30004KT 2SM -SN BR OVC003=



000
FTUS44 KSHV 242100 AAA
TAFTXK
TAF AMD
KTXK 242145Z 2422/2518 VRB05KT P6SM OVC015
     FM250200 VRB03KT P6SM BKN025 OVC200
     FM251000 VRB03KT 3SM -SNPL BR OVC010
      TEMPO 2510/2512 2SM -SN BR OVC008
     FM251300 00000KT 1 1/2SM -SN BR OVC007=



000
FTUS44 KSHV 242100 AAA
TAFTXK
TAF AMD
KTXK 242145Z 2422/2518 VRB05KT P6SM OVC015
     FM250200 VRB03KT P6SM BKN025 OVC200
     FM251000 VRB03KT 3SM -SNPL BR OVC010
      TEMPO 2510/2512 2SM -SN BR OVC008
     FM251300 00000KT 1 1/2SM -SN BR OVC007=



000
FTUS44 KSHV 242100 AAA
TAFMLU
TAF AMD
KMLU 242119Z 2421/2518 VRB03KT P6SM BKN035
     FM250000 00000KT P6SM SCT035 OVC200
     FM251100 VRB03KT 5SM -FZRAPL BR OVC015
     FM251400 34003KT 4SM -SNPL BR OVC007
     FM251600 35002KT 3SM -SN BR OVC003=



000
FTUS44 KSHV 241700 RRA
TAFELD
TAF
KELD 241750Z 2418/2518 32007KT P6SM OVC040
     FM242200 28005KT P6SM BKN030 OVC045
     FM250000 VRB03KT P6SM BKN040 BKN100 OVC200
     FM251100 VRB03KT 3SM -FZRAPL BR OVC010
     FM251300 VRB05KT 3SM -SNPL BR OVC010
     FM251500 VRB05KT 2SM -SN BR OVC007=



000
FTUS44 KSHV 241700 RRA
TAFLFK
TAF
KLFK 241750Z 2418/2518 35006KT P6SM OVC011
     FM242100 34003KT P6SM OVC025
     FM250000 00000KT P6SM BKN035 OVC045
     FM250900 VRB03KT 3SM -RAPL BR OVC015
      TEMPO 2512/2514 2SM -RAPL BR OVC009
     FM251500 33005KT 2SM -SN BR OVC006=



000
FTUS44 KSHV 241700 RRA
TAFTXK
TAF
KTXK 241750Z 2418/2518 32006KT P6SM OVC015
     FM241900 29005KT P6SM BKN025 OVC035
     FM242100 27006KT P6SM OVC035
     FM250200 VRB03KT P6SM BKN040 OVC200
     FM251000 VRB03KT 3SM -SNPL BR OVC010
      TEMPO 2510/2512 2SM -SN BR OVC008
     FM251300 00000KT 1 1/2SM -SN BR OVC007=



000
FTUS44 KSHV 241700 RRA
TAFMLU
TAF
KMLU 241750Z 2418/2518 34005KT P6SM SCT015 BKN050
     FM242000 34005KT P6SM OVC025
     FM250000 00000KT P6SM SCT035 OVC200
     FM251100 VRB03KT 3SM -FZRAPL BR OVC010
     FM251400 34003KT 4SM -RA BR OVC003
     FM251500 35002KT 3SM -SN BR OVC003=



000
FTUS44 KSHV 241700 RRA
TAFTYR
TAF
KTYR 241750Z 2418/2518 34006KT P6SM OVC008
     FM242100 33004KT P6SM SCT035 BKN100
     FM250000 VRB04KT P6SM OVC050
     FM250900 32003KT 3SM -SNPL BR OVC010
     FM251200 33003KT 4SM -SN BR OVC003
     FM251400 30004KT 2SM -SN BR OVC003=



000
FTUS44 KSHV 241700 RRA
TAFGGG
TAF
KGGG 241750Z 2418/2518 34006KT P6SM OVC008
     FM242100 33004KT P6SM SCT035 BKN100
     FM250000 VRB04KT P6SM OVC050
     FM250900 32003KT 3SM -SNPL BR OVC010
     FM251200 33003KT 4SM -SN BR OVC003
     FM251400 30004KT 2SM -SN BR OVC003=



000
FTUS44 KSHV 241700 RRA
TAFSHV
TAF
KSHV 241750Z 2418/2518 01006KT P6SM OVC011
     FM242100 30006KT P6SM BKN025 OVC035
     FM250000 VRB03KT P6SM BKN035 OVC200
     FM251000 VRB03KT 3SM -RAPL BR OVC015
      TEMPO 2511/2512 2SM -SNPL BR OVC009
     FM251300 35002KT 3SM -RA BR OVC003=



000
FTUS44 KSHV 241600 AAA
TAFTXK
TAF AMD
KTXK 241641Z 2417/2512 31007KT P6SM OVC015
     FM241900 29005KT P6SM BKN025 OVC035
     FM242100 27006KT P6SM OVC035
     FM250200 VRB03KT P6SM BKN040 OVC200
     FM251000 VRB03KT 3SM -SNPL BR OVC010
      TEMPO 2510/2512 2SM -SN BR OVC008=



000
FTUS44 KSHV 241600 AAA
TAFSHV
TAF AMD
KSHV 241602Z 2416/2512 34005KT P6SM OVC010
      TEMPO 2416/2418 BKN008 OVC012
     FM241800 32006KT P6SM OVC020
     FM242100 30006KT P6SM BKN025 OVC035
     FM250000 VRB03KT P6SM BKN035 OVC200
     FM251000 VRB03KT 3SM -RAPL BR OVC015
      TEMPO 2511/2512 2SM -SNPL BR OVC009=



000
FTUS44 KSHV 241600 AAA
TAFSHV
TAF AMD
KSHV 241602Z 2416/2512 34005KT P6SM OVC010
      TEMPO 2416/2418 BKN008 OVC012
     FM241800 32006KT P6SM OVC020
     FM242100 30006KT P6SM BKN025 OVC035
     FM250000 VRB03KT P6SM BKN035 OVC200
     FM251000 VRB03KT 3SM -RAPL BR OVC015
      TEMPO 2511/2512 2SM -SNPL BR OVC009=



000
FTUS44 KSHV 241100 RRA
TAFLFK
TAF
KLFK 241152Z 2412/2512 01007KT P6SM OVC005
     FM241500 34004KT P6SM OVC015
     FM241800 35003KT P6SM OVC025
     FM250000 00000KT P6SM SCT050 OVC200
     FM250900 VRB03KT 3SM -RA BR OVC015=



000
FTUS44 KSHV 241100 RRA
TAFMLU
TAF
KMLU 241152Z 2412/2512 02007KT P6SM OVC015
      TEMPO 2412/2416 6SM -FZDZ BR OVC007
     FM241900 34005KT P6SM OVC025
     FM250000 00000KT P6SM SCT035 OVC200
     FM251100 VRB03KT 3SM -FZRAPL BR OVC010=



000
FTUS44 KSHV 241100 RRA
TAFGGG
TAF
KGGG 241152Z 2412/2512 34006KT P6SM BKN007 OVC012
      TEMPO 2412/2415 6SM -FZDZ BR
     FM241800 34004KT P6SM OVC025
     FM242100 31005KT P6SM SCT035 BKN100
     FM250100 VRB04KT P6SM OVC050
     FM250900 36003KT 3SM -SNPL BR OVC010=



000
FTUS44 KSHV 241100 RRA
TAFTYR
TAF
KTYR 241152Z 2412/2512 01005KT P6SM OVC005
      TEMPO 2412/2415 5SM -FZDZ BR
     FM241800 34004KT P6SM OVC025
     FM242100 33004KT P6SM SCT035 BKN100
     FM250000 VRB04KT P6SM OVC050
     FM250900 32003KT 3SM -SNPL BR OVC010=



000
FTUS44 KSHV 241100 RRA
TAFTXK
TAF
KTXK 241152Z 2412/2512 03004KT P6SM BKN015 OVC035
     FM241600 29004KT P6SM OVC025
     FM241800 29005KT P6SM SCT035 OVC200
     FM250200 VRB03KT P6SM BKN040 OVC200
     FM251000 VRB03KT 3SM -SNPL BR OVC010=



000
FTUS44 KSHV 241100 RRA
TAFELD
TAF
KELD 241152Z 2412/2512 34004KT P6SM OVC025
     FM241500 33004KT P6SM BKN020
     FM241800 25005KT P6SM SCT035 BKN100 OVC200
     FM250000 VRB03KT P6SM SCT035 BKN100 OVC200
     FM251100 VRB03KT 3SM -FZRAPL BR OVC010=



000
FTUS44 KSHV 241100 RRA
TAFSHV
TAF
KSHV 241152Z 2412/2512 02007KT P6SM OVC007
      TEMPO 2412/2414 6SM -FZDZ BR
     FM241700 32006KT P6SM OVC020
     FM242100 30006KT P6SM BKN020 OVC035
     FM250000 VRB03KT P6SM BKN035 OVC200
     FM251000 VRB03KT 3SM -FZRAPL BR OVC010=



000
FTUS44 KSHV 240500
TAFELD
TAF
KELD 240540Z 2406/2506 01007KT P6SM BKN014 OVC040
     FM240900 36004KT P6SM OVC015
     FM241500 33004KT P6SM BKN020
     FM241800 25005KT P6SM SCT035 BKN100=



000
FTUS44 KSHV 240500
TAFTYR
TAF
KTYR 240540Z 2406/2506 03005KT P6SM OVC008
     FM241200 30005KT P6SM BKN007 OVC013
     FM241800 34004KT P6SM OVC025
     FM242100 33004KT P6SM SCT035 BKN100
     FM250000 VRB05KT P6SM OVC050=



000
FTUS44 KSHV 240500
TAFLFK
TAF
KLFK 240540Z 2406/2506 02005KT P6SM OVC008
     FM241200 30004KT P6SM BKN012
     FM241500 34004KT P6SM OVC015
     FM241800 35003KT P6SM OVC025
     FM250000 00000KT P6SM SCT050 OVC250=



000
FTUS44 KSHV 240500
TAFMLU
TAF
KMLU 240540Z 2406/2506 03008KT P6SM OVC010
     FM241200 01008KT 6SM BR OVC015
     FM241800 34005KT P6SM OVC035
     FM250000 00000KT P6SM BKN250=



000
FTUS44 KSHV 240500
TAFGGG
TAF
KGGG 240540Z 2406/2506 01005KT P6SM BKN009 OVC013
     FM241200 31004KT P6SM BKN008 OVC012
     FM241800 34004KT P6SM OVC015
     FM242100 31005KT P6SM SCT035 BKN100
     FM250100 VRB05KT P6SM OVC050=



000
FTUS44 KSHV 240500
TAFLFK
TAF
KLFK 240540Z 2406/2506 02005KT P6SM OVC008
     FM241200 30004KT P6SM BKN012
     FM241500 34004KT P6SM OVC015
     FM241800 35003KT P6SM OVC025
     FM250000 00000KT P6SM SCT050 OVC250=



000
FTUS44 KSHV 240500
TAFTXK
TAF
KTXK 240540Z 2406/2506 05006KT P6SM BKN012 BKN018 OVC030
     FM241200 01004KT P6SM BKN005 OVC010
     FM241500 29004KT P6SM OVC025
     FM241800 29005KT P6SM SCT035 OVC100
     FM242100 27005KT P6SM SCT100 OVC250=



000
FTUS44 KSHV 240500
TAFTYR
TAF
KTYR 240540Z 2406/2506 03005KT P6SM OVC008
     FM241200 30005KT P6SM BKN007 OVC013
     FM241800 34004KT P6SM OVC025
     FM242100 33004KT P6SM SCT035 BKN100
     FM250000 VRB05KT P6SM OVC050=



000
FTUS44 KSHV 240500
TAFMLU
TAF
KMLU 240540Z 2406/2506 03008KT P6SM OVC010
     FM241200 01008KT 6SM BR OVC015
     FM241800 34005KT P6SM OVC035
     FM250000 00000KT P6SM BKN250=



000
FTUS44 KSHV 240500
TAFELD
TAF
KELD 240540Z 2406/2506 01007KT P6SM BKN014 OVC040
     FM240900 36004KT P6SM OVC015
     FM241500 33004KT P6SM BKN020
     FM241800 25005KT P6SM SCT035 BKN100=



000
FTUS44 KSHV 240500
TAFGGG
TAF
KGGG 240540Z 2406/2506 01005KT P6SM BKN009 OVC013
     FM241200 31004KT P6SM BKN008 OVC012
     FM241800 34004KT P6SM OVC015
     FM242100 31005KT P6SM SCT035 BKN100
     FM250100 VRB05KT P6SM OVC050=



000
FTUS44 KSHV 240500
TAFSHV
TAF
KSHV 240540Z 2406/2506 03006KT P6SM OVC014
     FM241000 VRB05KT P6SM OVC015
     FM241300 30005KT P6SM OVC025
     FM241800 30005KT P6SM OVC035
     FM250000 VRB03KT P6SM OVC250=



000
FTUS44 KSHV 240400 AAA
TAFTXK
TAF AMD
KTXK 240430Z 2405/2424 03006KT P6SM OVC012
     FM241200 28004KT P6SM BKN015 OVC020
     FM241800 29005KT P6SM OVC100
     FM242100 27005KT P6SM SCT100 OVC250=



000
FTUS44 KSHV 240400 AAA
TAFTXK
TAF AMD
KTXK 240430Z 2405/2424 03006KT P6SM OVC012
     FM241200 28004KT P6SM BKN015 OVC020
     FM241800 29005KT P6SM OVC100
     FM242100 27005KT P6SM SCT100 OVC250=



000
FTUS44 KSHV 240400 AAA
TAFMLU
TAF AMD
KMLU 240421Z 2404/2424 02012KT 6SM BR BKN012 OVC040
     FM241200 36006KT 6SM BR OVC015
     FM241800 35005KT P6SM BKN015 OVC025=



000
FTUS44 KSHV 232300 RRA
TAFSHV
TAF
KSHV 232348Z 2400/2424 02011KT 6SM -SN BR SCT008 OVC015
      TEMPO 2400/2402 3SM -SN BR BKN008
     FM240600 35006KT 5SM BR OVC015
     FM241200 35005KT P6SM BKN005 OVC010
     FM241800 34004KT P6SM OVC015=



000
FTUS44 KSHV 232300 RRA
TAFELD
TAF
KELD 232348Z 2400/2424 01005KT 2SM PL BR FEW009 SCT017 OVC045
      TEMPO 2400/2403 1SM -SN BR BKN008
     FM240300 01005KT 4SM BR BKN010
     FM240900 36004KT P6SM OVC008
     FM241500 33004KT P6SM BKN010 OVC020
     FM242100 25005KT P6SM SCT100=



000
FTUS44 KSHV 232300 RRA
TAFLFK
TAF
KLFK 232348Z 2400/2424 04009G17KT 6SM BR BKN008 OVC014
      TEMPO 2400/2404 4SM -RA BR BKN008
     FM240600 36005KT P6SM OVC008
     FM241200 30004KT P6SM BKN010 OVC020
     FM242100 34004KT P6SM OVC015=



000
FTUS44 KSHV 232300 RRA
TAFGGG
TAF
KGGG 232348Z 2400/2424 02004KT 6SM -SNPL BR BKN014 OVC035
     FM240300 01005KT 6SM BR OVC008
     FM241200 31004KT P6SM BKN008 OVC012
     FM241800 34004KT P6SM OVC015
     FM242100 31005KT P6SM OVC100=



000
FTUS44 KSHV 232300 RRA
TAFMLU
TAF
KMLU 232348Z 2400/2424 01006KT 1 1/2SM -FZRAPL BR FEW013 OVC040
      TEMPO 2401/2404 3SM -SN BR BKN008
     FM241200 36006KT 6SM BR OVC015
     FM241800 35005KT P6SM BKN015 OVC025=



000
FTUS44 KSHV 232300 RRA
TAFTYR
TAF
KTYR 232348Z 2400/2424 03006KT 4SM BR BKN008 OVC012
     FM240600 03006KT 6SM BR OVC007
     FM241200 30005KT P6SM BKN007 OVC013
     FM241800 34004KT P6SM OVC015
     FM242100 33004KT P6SM OVC100=



000
FTUS44 KSHV 232300 RRA
TAFTXK
TAF
KTXK 232348Z 2400/2424 03007KT 4SM -SN BR BKN009 BKN050 OVC070
     FM240200 03007KT 5SM BR BKN009 BKN050 OVC070
     FM240600 03004KT P6SM OVC008
     FM241200 28004KT P6SM BKN010 OVC020
     FM241800 29005KT P6SM OVC100
     FM242100 27005KT P6SM SCT100 OVC250=



    US Dept of Commerce
    National Oceanic and Atmospheric Administration
    National Weather Service
    1325 East West Highway
    Silver Spring, MD 20910
    Page Author: NWS Internet Services Team
Disclaimer
Information Quality
Credits
Glossary
Privacy Policy
Freedom of Information Act (FOIA)
About Us
Career Opportunities